sensor_id;sensor_type;location;lat;lon;timestamp;pressure;altitude;pressure_sealevel;temperature;humidity
64841;BME280;51307;52.162;7.560;2023-04-07T00:00:23;100941.44;;;8.21;63.50
64841;BME280;51307;52.162;7.560;2023-04-07T00:02:48;100945.31;;;8.46;62.77
64841;BME280;51307;52.162;7.560;2023-04-07T00:05:14;100942.84;;;8.25;63.24
64841;BME280;51307;52.162;7.560;2023-04-07T00:07:39;100942.94;;;8.43;62.74
64841;BME280;51307;52.162;7.560;2023-04-07T00:10:06;100940.72;;;8.19;63.54
64841;BME280;51307;52.162;7.560;2023-04-07T00:12:32;100930.06;;;8.19;63.37
64841;BME280;51307;52.162;7.560;2023-04-07T00:14:58;100935.38;;;8.48;62.86
64841;BME280;51307;52.162;7.560;2023-04-07T00:17:23;100933.00;;;8.25;63.25
64841;BME280;51307;52.162;7.560;2023-04-07T00:19:49;100930.63;;;8.32;63.02
64841;BME280;51307;52.162;7.560;2023-04-07T00:22:15;100936.53;;;8.36;63.23
64841;BME280;51307;52.162;7.560;2023-04-07T00:24:40;100933.56;;;8.29;63.45
64841;BME280;51307;52.162;7.560;2023-04-07T00:27:06;100937.31;;;8.46;62.68
64841;BME280;51307;52.162;7.560;2023-04-07T00:29:31;100932.31;;;8.23;63.44
64841;BME280;51307;52.162;7.560;2023-04-07T00:31:56;100931.91;;;8.18;63.40
64841;BME280;51307;52.162;7.560;2023-04-07T00:34:22;100931.47;;;8.33;63.10
64841;BME280;51307;52.162;7.560;2023-04-07T00:36:47;100933.16;;;8.24;63.50
64841;BME280;51307;52.162;7.560;2023-04-07T00:39:19;100931.13;;;8.55;62.68
64841;BME280;51307;52.162;7.560;2023-04-07T00:41:46;100926.44;;;8.20;63.20
64841;BME280;51307;52.162;7.560;2023-04-07T00:44:13;100925.72;;;8.08;63.80
64841;BME280;51307;52.162;7.560;2023-04-07T00:46:39;100928.66;;;8.34;63.31
64841;BME280;51307;52.162;7.560;2023-04-07T00:49:06;100924.56;;;8.50;62.90
64841;BME280;51307;52.162;7.560;2023-04-07T00:51:31;100922.19;;;8.47;62.85
64841;BME280;51307;52.162;7.560;2023-04-07T00:53:57;100918.31;;;8.12;63.78
64841;BME280;51307;52.162;7.560;2023-04-07T00:56:23;100914.78;;;8.21;63.51
64841;BME280;51307;52.162;7.560;2023-04-07T00:58:48;100914.50;;;8.14;63.71
64841;BME280;51307;52.162;7.560;2023-04-07T01:04:06;100922.19;;;8.47;62.93
64841;BME280;51307;52.162;7.560;2023-04-07T01:06:39;100911.28;;;8.11;63.95
64841;BME280;51307;52.162;7.560;2023-04-07T01:09:18;100917.72;;;8.18;63.90
64841;BME280;51307;52.162;7.560;2023-04-07T01:14:18;100910.97;;;8.33;63.12
64841;BME280;51307;52.162;7.560;2023-04-07T01:16:48;100911.81;;;8.44;62.88
64841;BME280;51307;52.162;7.560;2023-04-07T01:22:06;100902.56;;;8.28;63.04
64841;BME280;51307;52.162;7.560;2023-04-07T01:27:48;100900.19;;;8.05;64.01
64841;BME280;51307;52.162;7.560;2023-04-07T01:30:21;100902.72;;;8.17;63.58
64841;BME280;51307;52.162;7.560;2023-04-07T01:32:51;100906.22;;;8.17;63.86
64841;BME280;51307;52.162;7.560;2023-04-07T01:35:18;100907.34;;;8.34;63.18
64841;BME280;51307;52.162;7.560;2023-04-07T01:37:47;100900.63;;;8.11;63.74
64841;BME280;51307;52.162;7.560;2023-04-07T01:40:16;100905.06;;;8.49;62.87
64841;BME280;51307;52.162;7.560;2023-04-07T01:42:44;100903.78;;;8.53;62.73
64841;BME280;51307;52.162;7.560;2023-04-07T01:45:10;100902.59;;;8.18;63.31
64841;BME280;51307;52.162;7.560;2023-04-07T01:47:38;100903.38;;;8.48;62.66
64841;BME280;51307;52.162;7.560;2023-04-07T01:50:05;100895.72;;;8.06;63.77
64841;BME280;51307;52.162;7.560;2023-04-07T01:52:34;100908.91;;;8.07;63.85
64841;BME280;51307;52.162;7.560;2023-04-07T01:55:01;100905.66;;;8.23;63.12
64841;BME280;51307;52.162;7.560;2023-04-07T01:57:27;100899.78;;;8.20;63.37
64841;BME280;51307;52.162;7.560;2023-04-07T01:59:53;100900.72;;;8.38;62.85
64841;BME280;51307;52.162;7.560;2023-04-07T02:02:19;100894.44;;;8.20;63.30
64841;BME280;51307;52.162;7.560;2023-04-07T02:04:55;100904.13;;;8.21;63.33
64841;BME280;51307;52.162;7.560;2023-04-07T02:07:41;100907.06;;;8.28;63.12
64841;BME280;51307;52.162;7.560;2023-04-07T02:10:13;100906.91;;;8.29;62.98
64841;BME280;51307;52.162;7.560;2023-04-07T02:12:42;100904.25;;;8.09;63.68
64841;BME280;51307;52.162;7.560;2023-04-07T02:15:11;100902.16;;;8.23;63.60
64841;BME280;51307;52.162;7.560;2023-04-07T02:17:41;100907.00;;;8.47;62.71
64841;BME280;51307;52.162;7.560;2023-04-07T02:20:09;100906.94;;;8.19;63.60
64841;BME280;51307;52.162;7.560;2023-04-07T02:22:40;100903.00;;;8.14;63.86
64841;BME280;51307;52.162;7.560;2023-04-07T02:25:30;100908.72;;;8.38;63.31
64841;BME280;51307;52.162;7.560;2023-04-07T02:27:58;100898.63;;;8.32;63.25
64841;BME280;51307;52.162;7.560;2023-04-07T02:30:26;100900.72;;;8.38;62.91
64841;BME280;51307;52.162;7.560;2023-04-07T02:32:53;100895.41;;;8.29;63.33
64841;BME280;51307;52.162;7.560;2023-04-07T02:35:18;100902.28;;;8.21;63.59
64841;BME280;51307;52.162;7.560;2023-04-07T02:37:45;100900.84;;;8.47;62.67
64841;BME280;51307;52.162;7.560;2023-04-07T02:40:12;100905.81;;;8.02;64.00
64841;BME280;51307;52.162;7.560;2023-04-07T02:42:38;100903.16;;;8.02;64.20
64841;BME280;51307;52.162;7.560;2023-04-07T02:45:05;100903.13;;;8.12;64.18
64841;BME280;51307;52.162;7.560;2023-04-07T02:47:32;100911.81;;;8.34;63.41
64841;BME280;51307;52.162;7.560;2023-04-07T02:49:57;100908.72;;;8.38;63.10
64841;BME280;51307;52.162;7.560;2023-04-07T02:52:23;100907.50;;;8.03;63.92
64841;BME280;51307;52.162;7.560;2023-04-07T02:54:49;100918.16;;;8.33;63.35
64841;BME280;51307;52.162;7.560;2023-04-07T02:57:14;100903.56;;;8.07;64.05
64841;BME280;51307;52.162;7.560;2023-04-07T02:59:40;100910.69;;;8.36;63.20
64841;BME280;51307;52.162;7.560;2023-04-07T03:02:06;100910.13;;;8.23;63.37
64841;BME280;51307;52.162;7.560;2023-04-07T03:04:31;100908.22;;;8.15;63.53
64841;BME280;51307;52.162;7.560;2023-04-07T03:06:57;100903.69;;;7.96;64.13
64841;BME280;51307;52.162;7.560;2023-04-07T03:09:23;100908.59;;;8.20;63.62
64841;BME280;51307;52.162;7.560;2023-04-07T03:11:48;100907.34;;;8.15;63.39
64841;BME280;51307;52.162;7.560;2023-04-07T03:14:14;100908.75;;;8.09;63.70
64841;BME280;51307;52.162;7.560;2023-04-07T03:16:40;100918.00;;;8.34;63.13
64841;BME280;51307;52.162;7.560;2023-04-07T03:19:06;100909.31;;;8.13;63.73
64841;BME280;51307;52.162;7.560;2023-04-07T03:21:32;100915.94;;;8.08;64.08
64841;BME280;51307;52.162;7.560;2023-04-07T03:23:58;100914.22;;;8.37;62.84
64841;BME280;51307;52.162;7.560;2023-04-07T03:26:23;100908.50;;;7.93;64.26
64841;BME280;51307;52.162;7.560;2023-04-07T03:28:49;100906.06;;;8.29;63.24
64841;BME280;51307;52.162;7.560;2023-04-07T03:31:14;100910.56;;;8.28;63.07
64841;BME280;51307;52.162;7.560;2023-04-07T03:33:40;100913.25;;;7.99;63.95
64841;BME280;51307;52.162;7.560;2023-04-07T03:36:05;100911.81;;;8.34;63.11
64841;BME280;51307;52.162;7.560;2023-04-07T03:38:32;100905.94;;;8.11;63.89
64841;BME280;51307;52.162;7.560;2023-04-07T03:40:58;100909.31;;;8.03;64.01
64841;BME280;51307;52.162;7.560;2023-04-07T03:43:23;100912.81;;;8.23;63.45
64841;BME280;51307;52.162;7.560;2023-04-07T03:45:52;100909.88;;;8.26;63.48
64841;BME280;51307;52.162;7.560;2023-04-07T03:48:17;100912.38;;;8.18;63.44
64841;BME280;51307;52.162;7.560;2023-04-07T03:50:44;100906.78;;;8.31;63.25
64841;BME280;51307;52.162;7.560;2023-04-07T03:53:10;100912.69;;;7.95;64.30
64841;BME280;51307;52.162;7.560;2023-04-07T03:55:35;100919.00;;;8.23;63.29
64841;BME280;51307;52.162;7.560;2023-04-07T03:58:01;100914.50;;;8.24;63.58
64841;BME280;51307;52.162;7.560;2023-04-07T04:00:26;100917.88;;;8.26;63.42
64841;BME280;51307;52.162;7.560;2023-04-07T04:02:52;100919.13;;;8.12;63.65
64841;BME280;51307;52.162;7.560;2023-04-07T04:05:18;100925.31;;;7.93;64.40
64841;BME280;51307;52.162;7.560;2023-04-07T04:07:43;100919.00;;;7.84;64.54
64841;BME280;51307;52.162;7.560;2023-04-07T04:10:09;100918.56;;;8.18;63.74
64841;BME280;51307;52.162;7.560;2023-04-07T04:12:35;100919.69;;;7.96;64.21
64841;BME280;51307;52.162;7.560;2023-04-07T04:15:00;100926.13;;;8.23;63.49
64841;BME280;51307;52.162;7.560;2023-04-07T04:17:26;100923.63;;;8.21;63.43
64841;BME280;51307;52.162;7.560;2023-04-07T04:19:52;100925.03;;;7.96;63.86
64841;BME280;51307;52.162;7.560;2023-04-07T04:22:18;100925.03;;;8.16;63.42
64841;BME280;51307;52.162;7.560;2023-04-07T04:24:44;100932.19;;;7.96;64.49
64841;BME280;51307;52.162;7.560;2023-04-07T04:27:09;100925.59;;;8.00;64.13
64841;BME280;51307;52.162;7.560;2023-04-07T04:29:35;100927.28;;;8.01;64.12
64841;BME280;51307;52.162;7.560;2023-04-07T04:32:01;100930.94;;;8.19;63.50
64841;BME280;51307;52.162;7.560;2023-04-07T04:34:26;100934.28;;;8.21;63.40
64841;BME280;51307;52.162;7.560;2023-04-07T04:36:52;100936.94;;;7.92;64.08
64841;BME280;51307;52.162;7.560;2023-04-07T04:39:17;100928.81;;;8.13;63.61
64841;BME280;51307;52.162;7.560;2023-04-07T04:41:46;100939.03;;;8.18;63.79
64841;BME280;51307;52.162;7.560;2023-04-07T04:44:11;100937.53;;;8.15;63.74
64841;BME280;51307;52.162;7.560;2023-04-07T04:46:37;100940.13;;;7.66;65.01
64841;BME280;51307;52.162;7.560;2023-04-07T04:49:02;100947.69;;;7.51;65.76
64841;BME280;51307;52.162;7.560;2023-04-07T04:51:28;100948.47;;;7.32;66.44
64841;BME280;51307;52.162;7.560;2023-04-07T04:53:53;100950.00;;;7.95;64.42
64841;BME280;51307;52.162;7.560;2023-04-07T04:56:19;100954.06;;;8.09;63.99
64841;BME280;51307;52.162;7.560;2023-04-07T04:58:46;100946.63;;;8.03;64.00
64841;BME280;51307;52.162;7.560;2023-04-07T05:01:12;100956.19;;;8.15;63.75
64841;BME280;51307;52.162;7.560;2023-04-07T05:03:37;100944.81;;;8.13;63.71
64841;BME280;51307;52.162;7.560;2023-04-07T05:06:03;100949.84;;;8.16;63.63
64841;BME280;51307;52.162;7.560;2023-04-07T05:08:29;100953.66;;;7.94;64.22
64841;BME280;51307;52.162;7.560;2023-04-07T05:10:54;100952.53;;;8.06;63.95
64841;BME280;51307;52.162;7.560;2023-04-07T05:13:20;100957.28;;;8.03;64.05
64841;BME280;51307;52.162;7.560;2023-04-07T05:15:45;100964.00;;;8.07;64.03
64841;BME280;51307;52.162;7.560;2023-04-07T05:18:11;100961.19;;;7.99;64.19
64841;BME280;51307;52.162;7.560;2023-04-07T05:20:37;100962.47;;;7.95;64.67
64841;BME280;51307;52.162;7.560;2023-04-07T05:23:03;100962.59;;;8.03;64.42
64841;BME280;51307;52.162;7.560;2023-04-07T05:25:28;100969.06;;;8.00;64.45
64841;BME280;51307;52.162;7.560;2023-04-07T05:27:54;100969.06;;;8.00;64.60
64841;BME280;51307;52.162;7.560;2023-04-07T05:30:20;100966.53;;;7.99;64.90
64841;BME280;51307;52.162;7.560;2023-04-07T05:32:45;100971.31;;;8.05;64.43
64841;BME280;51307;52.162;7.560;2023-04-07T05:35:11;100976.06;;;8.01;64.52
64841;BME280;51307;52.162;7.560;2023-04-07T05:37:36;100973.25;;;7.83;65.08
64841;BME280;51307;52.162;7.560;2023-04-07T05:40:02;100972.88;;;8.07;64.39
64841;BME280;51307;52.162;7.560;2023-04-07T05:42:27;100980.72;;;8.09;64.42
64841;BME280;51307;52.162;7.560;2023-04-07T05:44:53;100979.59;;;8.02;64.56
64841;BME280;51307;52.162;7.560;2023-04-07T05:47:18;100982.94;;;7.94;64.87
64841;BME280;51307;52.162;7.560;2023-04-07T05:49:44;100979.44;;;7.94;64.81
64841;BME280;51307;52.162;7.560;2023-04-07T05:52:12;100973.69;;;7.98;64.90
64841;BME280;51307;52.162;7.560;2023-04-07T05:54:38;100983.53;;;8.17;64.27
64841;BME280;51307;52.162;7.560;2023-04-07T05:57:07;100987.16;;;8.06;64.54
64841;BME280;51307;52.162;7.560;2023-04-07T05:59:33;100980.31;;;8.23;64.23
64841;BME280;51307;52.162;7.560;2023-04-07T06:01:59;100984.94;;;8.02;64.75
64841;BME280;51307;52.162;7.560;2023-04-07T06:04:25;100995.44;;;8.13;64.45
64841;BME280;51307;52.162;7.560;2023-04-07T06:06:50;100993.22;;;8.18;64.11
64841;BME280;51307;52.162;7.560;2023-04-07T06:09:20;100994.88;;;8.09;64.67
64841;BME280;51307;52.162;7.560;2023-04-07T06:11:45;100999.22;;;8.11;64.61
64841;BME280;51307;52.162;7.560;2023-04-07T06:14:11;100993.91;;;7.91;65.25
64841;BME280;51307;52.162;7.560;2023-04-07T06:16:36;101009.16;;;7.99;65.04
64841;BME280;51307;52.162;7.560;2023-04-07T06:19:02;101009.50;;;8.15;64.72
64841;BME280;51307;52.162;7.560;2023-04-07T06:21:28;100999.78;;;8.24;64.62
64841;BME280;51307;52.162;7.560;2023-04-07T06:23:54;101006.38;;;8.10;64.59
64841;BME280;51307;52.162;7.560;2023-04-07T06:26:20;101009.47;;;8.05;64.99
64841;BME280;51307;52.162;7.560;2023-04-07T06:28:46;101010.28;;;7.96;65.55
64841;BME280;51307;52.162;7.560;2023-04-07T06:31:11;101010.03;;;8.19;65.17
64841;BME280;51307;52.162;7.560;2023-04-07T06:33:37;101007.66;;;8.25;64.81
64841;BME280;51307;52.162;7.560;2023-04-07T06:36:03;101013.56;;;8.29;64.34
64841;BME280;51307;52.162;7.560;2023-04-07T06:38:28;101015.06;;;8.12;64.81
64841;BME280;51307;52.162;7.560;2023-04-07T06:40:54;101018.03;;;8.29;64.47
64841;BME280;51307;52.162;7.560;2023-04-07T06:43:19;101025.03;;;8.30;64.71
64841;BME280;51307;52.162;7.560;2023-04-07T06:45:45;101027.03;;;8.28;64.80
64841;BME280;51307;52.162;7.560;2023-04-07T06:48:10;101025.91;;;8.30;64.66
64841;BME280;51307;52.162;7.560;2023-04-07T06:50:36;101022.22;;;8.31;64.77
64841;BME280;51307;52.162;7.560;2023-04-07T06:53:05;101017.03;;;8.30;64.82
64841;BME280;51307;52.162;7.560;2023-04-07T06:55:30;101027.72;;;8.30;65.25
64841;BME280;51307;52.162;7.560;2023-04-07T06:57:55;101029.13;;;8.34;65.11
64841;BME280;51307;52.162;7.560;2023-04-07T07:00:21;101035.03;;;8.28;65.28
64841;BME280;51307;52.162;7.560;2023-04-07T07:02:51;101033.34;;;8.27;65.22
64841;BME280;51307;52.162;7.560;2023-04-07T07:05:16;101038.94;;;8.33;65.15
64841;BME280;51307;52.162;7.560;2023-04-07T07:07:42;101041.59;;;8.43;64.92
64841;BME280;51307;52.162;7.560;2023-04-07T07:10:08;101033.63;;;8.23;65.07
64841;BME280;51307;52.162;7.560;2023-04-07T07:12:35;101034.88;;;8.29;65.52
64841;BME280;51307;52.162;7.560;2023-04-07T07:15:00;101043.59;;;8.51;64.86
64841;BME280;51307;52.162;7.560;2023-04-07T07:17:26;101039.81;;;8.44;65.42
64841;BME280;51307;52.162;7.560;2023-04-07T07:19:51;101044.41;;;8.41;64.92
64841;BME280;51307;52.162;7.560;2023-04-07T07:22:17;101049.31;;;8.46;64.69
64841;BME280;51307;52.162;7.560;2023-04-07T07:24:42;101051.31;;;8.34;65.07
64841;BME280;51307;52.162;7.560;2023-04-07T07:27:07;101052.84;;;8.47;64.84
64841;BME280;51307;52.162;7.560;2023-04-07T07:29:33;101056.06;;;8.21;65.58
64841;BME280;51307;52.162;7.560;2023-04-07T07:31:58;101064.78;;;8.52;64.99
64841;BME280;51307;52.162;7.560;2023-04-07T07:34:24;101058.19;;;8.37;65.60
64841;BME280;51307;52.162;7.560;2023-04-07T07:36:50;101061.66;;;8.18;66.12
64841;BME280;51307;52.162;7.560;2023-04-07T07:39:15;101065.31;;;8.36;65.70
64841;BME280;51307;52.162;7.560;2023-04-07T07:41:41;101065.75;;;8.51;65.28
64841;BME280;51307;52.162;7.560;2023-04-07T07:44:06;101072.91;;;8.51;65.03
64841;BME280;51307;52.162;7.560;2023-04-07T07:46:31;101077.00;;;8.55;65.33
64841;BME280;51307;52.162;7.560;2023-04-07T07:48:57;101077.69;;;8.47;65.48
64841;BME280;51307;52.162;7.560;2023-04-07T07:51:22;101077.97;;;8.54;65.63
64841;BME280;51307;52.162;7.560;2023-04-07T07:53:48;101078.09;;;8.62;65.30
64841;BME280;51307;52.162;7.560;2023-04-07T07:56:14;101086.94;;;8.33;66.01
64841;BME280;51307;52.162;7.560;2023-04-07T07:58:39;101084.16;;;8.54;65.63
64841;BME280;51307;52.162;7.560;2023-04-07T08:01:05;101087.66;;;8.55;65.33
64841;BME280;51307;52.162;7.560;2023-04-07T08:03:31;101092.56;;;8.50;65.58
64841;BME280;51307;52.162;7.560;2023-04-07T08:05:56;101093.41;;;8.50;65.89
64841;BME280;51307;52.162;7.560;2023-04-07T08:08:22;101097.34;;;8.56;65.73
64841;BME280;51307;52.162;7.560;2023-04-07T08:10:47;101097.75;;;8.51;65.56
64841;BME280;51307;52.162;7.560;2023-04-07T08:13:13;101095.38;;;8.68;65.30
64841;BME280;51307;52.162;7.560;2023-04-07T08:15:38;101101.00;;;8.74;65.12
64841;BME280;51307;52.162;7.560;2023-04-07T08:18:04;101105.50;;;8.64;65.26
64841;BME280;51307;52.162;7.560;2023-04-07T08:20:31;101110.25;;;8.70;65.37
64841;BME280;51307;52.162;7.560;2023-04-07T08:22:57;101118.25;;;8.70;65.28
64841;BME280;51307;52.162;7.560;2023-04-07T08:25:23;101115.19;;;8.75;65.52
64841;BME280;51307;52.162;7.560;2023-04-07T08:27:48;101116.16;;;8.74;65.11
64841;BME280;51307;52.162;7.560;2023-04-07T08:30:14;101121.78;;;8.61;65.23
64841;BME280;51307;52.162;7.560;2023-04-07T08:32:41;101127.09;;;8.81;65.35
64841;BME280;51307;52.162;7.560;2023-04-07T08:35:08;101124.59;;;8.79;65.56
64841;BME280;51307;52.162;7.560;2023-04-07T08:37:34;101125.56;;;8.58;66.16
64841;BME280;51307;52.162;7.560;2023-04-07T08:40:01;101128.19;;;8.49;66.67
64841;BME280;51307;52.162;7.560;2023-04-07T08:42:30;101130.75;;;8.80;65.91
64841;BME280;51307;52.162;7.560;2023-04-07T08:45:01;101136.81;;;8.82;65.48
64841;BME280;51307;52.162;7.560;2023-04-07T08:47:30;101130.50;;;8.83;65.03
64841;BME280;51307;52.162;7.560;2023-04-07T08:50:01;101134.81;;;8.84;65.04
64841;BME280;51307;52.162;7.560;2023-04-07T08:52:50;101130.91;;;8.68;65.82
64841;BME280;51307;52.162;7.560;2023-04-07T08:55:17;101129.25;;;8.87;65.37
64841;BME280;51307;52.162;7.560;2023-04-07T08:57:44;101129.81;;;9.00;65.07
64841;BME280;51307;52.162;7.560;2023-04-07T09:00:11;101137.81;;;8.90;64.93
64841;BME280;51307;52.162;7.560;2023-04-07T09:02:40;101133.03;;;9.04;64.93
64841;BME280;51307;52.162;7.560;2023-04-07T09:05:08;101140.06;;;9.05;64.58
64841;BME280;51307;52.162;7.560;2023-04-07T09:07:35;101141.59;;;9.07;65.41
64841;BME280;51307;52.162;7.560;2023-04-07T09:10:02;101147.22;;;9.04;64.82
64841;BME280;51307;52.162;7.560;2023-04-07T09:12:29;101149.91;;;9.04;64.49
64841;BME280;51307;52.162;7.560;2023-04-07T09:14:55;101141.88;;;9.04;64.68
64841;BME280;51307;52.162;7.560;2023-04-07T09:17:21;101145.38;;;9.05;64.81
64841;BME280;51307;52.162;7.560;2023-04-07T09:19:47;101153.69;;;9.02;64.58
64841;BME280;51307;52.162;7.560;2023-04-07T09:22:13;101155.94;;;8.87;64.92
64841;BME280;51307;52.162;7.560;2023-04-07T09:24:40;101158.88;;;9.03;64.61
64841;BME280;51307;52.162;7.560;2023-04-07T09:27:16;101157.34;;;9.01;64.13
64841;BME280;51307;52.162;7.560;2023-04-07T09:29:45;101164.38;;;8.92;64.50
64841;BME280;51307;52.162;7.560;2023-04-07T09:32:10;101169.84;;;9.00;63.86
64841;BME280;51307;52.162;7.560;2023-04-07T09:34:39;101158.47;;;8.88;64.12
64841;BME280;51307;52.162;7.560;2023-04-07T09:37:06;101161.41;;;8.95;63.98
64841;BME280;51307;52.162;7.560;2023-04-07T09:39:48;101166.31;;;8.90;64.00
64841;BME280;51307;52.162;7.560;2023-04-07T09:42:14;101167.72;;;8.94;64.53
64841;BME280;51307;52.162;7.560;2023-04-07T09:44:40;101158.88;;;9.03;64.42
64841;BME280;51307;52.162;7.560;2023-04-07T09:47:06;101163.94;;;9.06;64.58
64841;BME280;51307;52.162;7.560;2023-04-07T09:49:31;101168.84;;;9.01;64.88
64841;BME280;51307;52.162;7.560;2023-04-07T09:52:00;101164.34;;;9.12;64.97
64841;BME280;51307;52.162;7.560;2023-04-07T09:54:37;101166.44;;;9.08;64.75
64841;BME280;51307;52.162;7.560;2023-04-07T09:57:04;101172.34;;;9.12;64.60
64841;BME280;51307;52.162;7.560;2023-04-07T09:59:32;101167.59;;;9.05;64.74
64841;BME280;51307;52.162;7.560;2023-04-07T10:01:59;101170.81;;;9.09;64.47
64841;BME280;51307;52.162;7.560;2023-04-07T10:04:25;101177.28;;;9.06;64.58
64841;BME280;51307;52.162;7.560;2023-04-07T10:06:52;101181.19;;;9.12;64.41
64841;BME280;51307;52.162;7.560;2023-04-07T10:09:19;101179.78;;;9.08;64.76
64841;BME280;51307;52.162;7.560;2023-04-07T10:11:49;101176.13;;;9.19;64.16
64841;BME280;51307;52.162;7.560;2023-04-07T10:14:17;101182.06;;;9.13;63.63
64841;BME280;51307;52.162;7.560;2023-04-07T10:16:45;101182.06;;;9.13;64.29
64841;BME280;51307;52.162;7.560;2023-04-07T10:19:12;101179.09;;;9.16;64.58
64841;BME280;51307;52.162;7.560;2023-04-07T10:21:42;101178.53;;;9.22;64.50
64841;BME280;51307;52.162;7.560;2023-04-07T10:26:36;101186.13;;;9.26;65.15
64841;BME280;51307;52.162;7.560;2023-04-07T10:29:10;101186.53;;;9.32;64.23
64841;BME280;51307;52.162;7.560;2023-04-07T10:31:38;101186.97;;;9.27;64.78
64841;BME280;51307;52.162;7.560;2023-04-07T10:34:04;101184.97;;;9.39;64.38
64841;BME280;51307;52.162;7.560;2023-04-07T10:36:30;101200.28;;;9.47;64.06
64841;BME280;51307;52.162;7.560;2023-04-07T10:41:34;101192.81;;;9.60;63.91
64841;BME280;51307;52.162;7.560;2023-04-07T10:44:01;101202.81;;;9.58;63.87
64841;BME280;51307;52.162;7.560;2023-04-07T10:49:14;101205.75;;;9.55;63.16
64841;BME280;51307;52.162;7.560;2023-04-07T10:51:41;101203.06;;;9.55;63.13
64841;BME280;51307;52.162;7.560;2023-04-07T10:54:19;101209.66;;;9.60;63.15
64841;BME280;51307;52.162;7.560;2023-04-07T10:57:04;101214.75;;;9.64;63.11
64841;BME280;51307;52.162;7.560;2023-04-07T10:59:33;101205.47;;;9.68;63.49
64841;BME280;51307;52.162;7.560;2023-04-07T11:04:41;101216.44;;;9.65;63.45
64841;BME280;51307;52.162;7.560;2023-04-07T11:07:08;101207.00;;;9.70;64.15
64841;BME280;51307;52.162;7.560;2023-04-07T11:09:34;101207.94;;;9.79;62.84
64841;BME280;51307;52.162;7.560;2023-04-07T11:12:00;101214.72;;;9.73;63.14
64841;BME280;51307;52.162;7.560;2023-04-07T11:14:32;101214.81;;;9.82;63.07
64841;BME280;51307;52.162;7.560;2023-04-07T11:16:59;101222.28;;;9.88;62.07
64841;BME280;51307;52.162;7.560;2023-04-07T11:19:28;101215.50;;;9.93;62.26
64841;BME280;51307;52.162;7.560;2023-04-07T11:22:12;101222.28;;;9.88;62.08
64841;BME280;51307;52.162;7.560;2023-04-07T11:24:38;101221.41;;;9.87;61.96
64841;BME280;51307;52.162;7.560;2023-04-07T11:27:04;101223.41;;;9.85;61.22
64841;BME280;51307;52.162;7.560;2023-04-07T11:29:32;101220.03;;;9.93;60.65
64841;BME280;51307;52.162;7.560;2023-04-07T11:31:59;101222.13;;;9.89;60.31
64841;BME280;51307;52.162;7.560;2023-04-07T11:34:33;101227.22;;;9.83;60.50
64841;BME280;51307;52.162;7.560;2023-04-07T11:37:21;101230.97;;;9.90;61.15
64841;BME280;51307;52.162;7.560;2023-04-07T11:39:54;101225.78;;;9.88;60.05
64841;BME280;51307;52.162;7.560;2023-04-07T11:42:39;101226.75;;;9.87;59.65
64841;BME280;51307;52.162;7.560;2023-04-07T11:45:15;101230.97;;;9.90;60.60
64841;BME280;51307;52.162;7.560;2023-04-07T11:47:41;101238.88;;;9.82;59.99
64841;BME280;51307;52.162;7.560;2023-04-07T11:50:06;101239.56;;;9.93;59.69
64841;BME280;51307;52.162;7.560;2023-04-07T11:52:45;101238.44;;;9.96;59.83
64841;BME280;51307;52.162;7.560;2023-04-07T11:55:22;101242.44;;;10.10;59.83
64841;BME280;51307;52.162;7.560;2023-04-07T11:57:49;101238.09;;;10.09;60.35
64841;BME280;51307;52.162;7.560;2023-04-07T12:00:16;101242.56;;;10.18;60.54
64841;BME280;51307;52.162;7.560;2023-04-07T12:02:43;101248.78;;;10.19;60.50
64841;BME280;51307;52.162;7.560;2023-04-07T12:05:08;101247.88;;;10.28;59.45
64841;BME280;51307;52.162;7.560;2023-04-07T12:07:38;101248.47;;;10.22;59.20
64841;BME280;51307;52.162;7.560;2023-04-07T12:10:18;101258.88;;;10.25;59.45
64841;BME280;51307;52.162;7.560;2023-04-07T12:12:45;101259.38;;;10.38;60.00
64841;BME280;51307;52.162;7.560;2023-04-07T12:15:11;101254.44;;;10.43;59.33
64841;BME280;51307;52.162;7.560;2023-04-07T12:17:37;101257.53;;;10.49;59.42
64841;BME280;51307;52.162;7.560;2023-04-07T12:20:02;101264.03;;;10.46;58.97
64841;BME280;51307;52.162;7.560;2023-04-07T12:22:28;101262.03;;;10.38;58.96
64841;BME280;51307;52.162;7.560;2023-04-07T12:24:53;101261.50;;;10.45;59.15
64841;BME280;51307;52.162;7.560;2023-04-07T12:27:19;101268.53;;;10.46;59.29
64841;BME280;51307;52.162;7.560;2023-04-07T12:29:45;101273.25;;;10.24;59.17
64841;BME280;51307;52.162;7.560;2023-04-07T12:32:10;101269.91;;;10.40;58.84
64841;BME280;51307;52.162;7.560;2023-04-07T12:34:36;101272.47;;;10.41;58.79
64841;BME280;51307;52.162;7.560;2023-04-07T12:37:02;101278.09;;;10.38;57.65
64841;BME280;51307;52.162;7.560;2023-04-07T12:39:27;101277.81;;;10.41;57.79
64841;BME280;51307;52.162;7.560;2023-04-07T12:41:53;101276.81;;;10.42;57.97
64841;BME280;51307;52.162;7.560;2023-04-07T12:44:18;101276.97;;;10.41;57.81
64841;BME280;51307;52.162;7.560;2023-04-07T12:46:44;101275.88;;;10.34;56.86
64841;BME280;51307;52.162;7.560;2023-04-07T12:49:09;101279.56;;;10.23;57.50
64841;BME280;51307;52.162;7.560;2023-04-07T12:51:35;101281.91;;;10.36;56.77
64841;BME280;51307;52.162;7.560;2023-04-07T12:54:01;101283.75;;;10.35;56.73
64841;BME280;51307;52.162;7.560;2023-04-07T12:56:28;101277.31;;;10.28;56.57
64841;BME280;51307;52.162;7.560;2023-04-07T12:58:54;101285.97;;;10.40;56.81
64841;BME280;51307;52.162;7.560;2023-04-07T13:01:20;101284.84;;;10.42;57.25
64841;BME280;51307;52.162;7.560;2023-04-07T13:03:46;101284.31;;;10.39;57.49
64841;BME280;51307;52.162;7.560;2023-04-07T13:06:12;101290.63;;;10.48;57.58
64841;BME280;51307;52.162;7.560;2023-04-07T13:08:38;101286.13;;;10.38;57.50
64841;BME280;51307;52.162;7.560;2023-04-07T13:11:04;101288.50;;;10.51;57.48
64841;BME280;51307;52.162;7.560;2023-04-07T13:13:30;101285.56;;;10.45;56.85
64841;BME280;51307;52.162;7.560;2023-04-07T13:15:56;101285.97;;;10.40;57.11
64841;BME280;51307;52.162;7.560;2023-04-07T13:18:21;101294.00;;;10.50;57.29
64841;BME280;51307;52.162;7.560;2023-04-07T13:20:47;101295.53;;;10.52;56.43